Riviera, Texas
Current Conditions -  °F | °C
As of 10:56 PM on Wednesday 26 Nov 2014 (Local Time) from KNQI Reporting Station
Clear Clear  
Wind Chill: 51°   Ceiling: Unl
Heat Index: 51°   Visibility: 10mi
Dew Point: 48°   Wind: 7mph
Humidity: 89%   Direction: 180°S
Pressure: 30.31"   Gusts: NA
Location:  27.3°N, 97.82°W
Report Text: KNQI 270456Z 18006KT 10SM CLR 11/09 A3031 RMK AO2 SLP260 T01060089
Loading
Personal Weather Stations






























Interactive Weather Map New forecast layout! Learn more

10-Day Weather Forecast

Advertisements
Track Severe Weather on mobile